sensor_id;sensor_type;location;lat;lon;timestamp;P1;durP1;ratioP1;P2;durP2;ratioP2
16731;SDS011;8484;50.904;9.192;2023-08-21T00:01:36;3.60;;;2.93;;
16731;SDS011;8484;50.904;9.192;2023-08-21T00:04:03;2.70;;;2.50;;
16731;SDS011;8484;50.904;9.192;2023-08-21T00:06:30;3.30;;;2.70;;
16731;SDS011;8484;50.904;9.192;2023-08-21T00:08:57;3.23;;;2.93;;
16731;SDS011;8484;50.904;9.192;2023-08-21T00:11:24;2.77;;;2.53;;
16731;SDS011;8484;50.904;9.192;2023-08-21T00:13:53;3.63;;;2.80;;
16731;SDS011;8484;50.904;9.192;2023-08-21T00:16:20;3.73;;;3.17;;
16731;SDS011;8484;50.904;9.192;2023-08-21T00:18:47;3.17;;;2.87;;
16731;SDS011;8484;50.904;9.192;2023-08-21T00:21:13;3.83;;;3.20;;
16731;SDS011;8484;50.904;9.192;2023-08-21T00:23:40;3.97;;;3.20;;
16731;SDS011;8484;50.904;9.192;2023-08-21T00:26:07;3.63;;;2.80;;
16731;SDS011;8484;50.904;9.192;2023-08-21T00:28:34;3.30;;;3.00;;
16731;SDS011;8484;50.904;9.192;2023-08-21T00:31:02;4.70;;;2.70;;
16731;SDS011;8484;50.904;9.192;2023-08-21T00:33:30;3.43;;;3.13;;
16731;SDS011;8484;50.904;9.192;2023-08-21T00:35:58;3.23;;;2.97;;
16731;SDS011;8484;50.904;9.192;2023-08-21T00:38:25;2.80;;;2.60;;
16731;SDS011;8484;50.904;9.192;2023-08-21T00:40:52;4.53;;;2.97;;
16731;SDS011;8484;50.904;9.192;2023-08-21T00:43:19;3.83;;;3.10;;
16731;SDS011;8484;50.904;9.192;2023-08-21T00:45:46;3.30;;;2.80;;
16731;SDS011;8484;50.904;9.192;2023-08-21T00:48:17;3.20;;;2.67;;
16731;SDS011;8484;50.904;9.192;2023-08-21T00:50:44;4.17;;;3.10;;
16731;SDS011;8484;50.904;9.192;2023-08-21T00:53:11;3.07;;;2.77;;
16731;SDS011;8484;50.904;9.192;2023-08-21T00:55:39;8.33;;;2.80;;
16731;SDS011;8484;50.904;9.192;2023-08-21T00:58:08;3.30;;;2.93;;
16731;SDS011;8484;50.904;9.192;2023-08-21T01:00:36;3.27;;;2.87;;
16731;SDS011;8484;50.904;9.192;2023-08-21T01:03:04;5.23;;;3.00;;
16731;SDS011;8484;50.904;9.192;2023-08-21T01:05:32;3.10;;;2.80;;
16731;SDS011;8484;50.904;9.192;2023-08-21T01:08:01;4.27;;;3.07;;
16731;SDS011;8484;50.904;9.192;2023-08-21T01:10:38;3.50;;;2.90;;
16731;SDS011;8484;50.904;9.192;2023-08-21T01:13:13;4.77;;;2.70;;
16731;SDS011;8484;50.904;9.192;2023-08-21T01:15:50;3.00;;;2.80;;
16731;SDS011;8484;50.904;9.192;2023-08-21T01:18:20;3.30;;;2.97;;
16731;SDS011;8484;50.904;9.192;2023-08-21T01:20:51;3.60;;;2.67;;
16731;SDS011;8484;50.904;9.192;2023-08-21T01:23:30;3.40;;;2.70;;
16731;SDS011;8484;50.904;9.192;2023-08-21T01:25:58;2.83;;;2.57;;
16731;SDS011;8484;50.904;9.192;2023-08-21T01:28:25;3.07;;;2.63;;
16731;SDS011;8484;50.904;9.192;2023-08-21T01:30:56;3.87;;;3.13;;
16731;SDS011;8484;50.904;9.192;2023-08-21T01:33:27;3.77;;;2.80;;
16731;SDS011;8484;50.904;9.192;2023-08-21T01:35:57;3.80;;;2.80;;
16731;SDS011;8484;50.904;9.192;2023-08-21T01:38:25;3.63;;;2.67;;
16731;SDS011;8484;50.904;9.192;2023-08-21T01:40:54;3.43;;;2.47;;
16731;SDS011;8484;50.904;9.192;2023-08-21T01:43:21;3.67;;;2.43;;
16731;SDS011;8484;50.904;9.192;2023-08-21T01:45:48;3.47;;;2.70;;
16731;SDS011;8484;50.904;9.192;2023-08-21T01:48:15;4.73;;;2.70;;
16731;SDS011;8484;50.904;9.192;2023-08-21T01:50:42;4.30;;;3.20;;
16731;SDS011;8484;50.904;9.192;2023-08-21T01:53:09;3.50;;;3.20;;
16731;SDS011;8484;50.904;9.192;2023-08-21T01:55:36;4.20;;;2.70;;
16731;SDS011;8484;50.904;9.192;2023-08-21T01:58:04;2.53;;;2.30;;
16731;SDS011;8484;50.904;9.192;2023-08-21T02:00:31;5.07;;;2.43;;
16731;SDS011;8484;50.904;9.192;2023-08-21T02:02:58;2.97;;;2.60;;
16731;SDS011;8484;50.904;9.192;2023-08-21T02:05:24;3.47;;;2.83;;
16731;SDS011;8484;50.904;9.192;2023-08-21T02:07:51;2.77;;;2.50;;
16731;SDS011;8484;50.904;9.192;2023-08-21T02:10:19;4.90;;;2.87;;
16731;SDS011;8484;50.904;9.192;2023-08-21T02:12:46;2.73;;;2.53;;
16731;SDS011;8484;50.904;9.192;2023-08-21T02:15:15;2.80;;;2.53;;
16731;SDS011;8484;50.904;9.192;2023-08-21T02:17:42;3.07;;;2.37;;
16731;SDS011;8484;50.904;9.192;2023-08-21T02:20:10;2.67;;;2.47;;
16731;SDS011;8484;50.904;9.192;2023-08-21T02:22:37;4.57;;;3.00;;
16731;SDS011;8484;50.904;9.192;2023-08-21T02:25:04;3.13;;;2.77;;
16731;SDS011;8484;50.904;9.192;2023-08-21T02:27:31;6.43;;;2.60;;
16731;SDS011;8484;50.904;9.192;2023-08-21T02:29:58;3.77;;;2.80;;
16731;SDS011;8484;50.904;9.192;2023-08-21T02:32:26;4.13;;;2.63;;
16731;SDS011;8484;50.904;9.192;2023-08-21T02:34:54;3.30;;;2.70;;
16731;SDS011;8484;50.904;9.192;2023-08-21T02:37:20;3.97;;;2.47;;
16731;SDS011;8484;50.904;9.192;2023-08-21T02:39:47;4.83;;;2.80;;
16731;SDS011;8484;50.904;9.192;2023-08-21T02:42:14;3.23;;;2.50;;
16731;SDS011;8484;50.904;9.192;2023-08-21T02:44:41;6.07;;;2.50;;
16731;SDS011;8484;50.904;9.192;2023-08-21T02:47:08;4.33;;;2.70;;
16731;SDS011;8484;50.904;9.192;2023-08-21T02:49:36;4.10;;;2.50;;
16731;SDS011;8484;50.904;9.192;2023-08-21T02:52:03;3.63;;;2.60;;
16731;SDS011;8484;50.904;9.192;2023-08-21T02:54:30;3.00;;;2.60;;
16731;SDS011;8484;50.904;9.192;2023-08-21T02:56:57;3.37;;;2.60;;
16731;SDS011;8484;50.904;9.192;2023-08-21T02:59:24;2.50;;;2.30;;
16731;SDS011;8484;50.904;9.192;2023-08-21T03:01:51;2.43;;;2.23;;
16731;SDS011;8484;50.904;9.192;2023-08-21T03:04:18;3.80;;;2.57;;
16731;SDS011;8484;50.904;9.192;2023-08-21T03:06:46;4.60;;;2.50;;
16731;SDS011;8484;50.904;9.192;2023-08-21T03:09:13;2.53;;;2.33;;
16731;SDS011;8484;50.904;9.192;2023-08-21T03:11:40;3.10;;;2.50;;
16731;SDS011;8484;50.904;9.192;2023-08-21T03:14:07;4.80;;;2.40;;
16731;SDS011;8484;50.904;9.192;2023-08-21T03:16:34;3.27;;;2.47;;
16731;SDS011;8484;50.904;9.192;2023-08-21T03:19:01;3.73;;;2.80;;
16731;SDS011;8484;50.904;9.192;2023-08-21T03:21:28;3.37;;;2.83;;
16731;SDS011;8484;50.904;9.192;2023-08-21T03:23:56;5.77;;;2.60;;
16731;SDS011;8484;50.904;9.192;2023-08-21T03:26:24;4.20;;;2.53;;
16731;SDS011;8484;50.904;9.192;2023-08-21T03:28:52;3.37;;;2.70;;
16731;SDS011;8484;50.904;9.192;2023-08-21T03:31:19;3.07;;;2.60;;
16731;SDS011;8484;50.904;9.192;2023-08-21T03:33:45;2.57;;;2.37;;
16731;SDS011;8484;50.904;9.192;2023-08-21T03:36:13;3.07;;;2.77;;
16731;SDS011;8484;50.904;9.192;2023-08-21T03:38:40;3.27;;;2.80;;
16731;SDS011;8484;50.904;9.192;2023-08-21T03:41:08;4.63;;;3.03;;
16731;SDS011;8484;50.904;9.192;2023-08-21T03:43:37;4.17;;;3.10;;
16731;SDS011;8484;50.904;9.192;2023-08-21T03:46:04;5.10;;;3.50;;
16731;SDS011;8484;50.904;9.192;2023-08-21T03:48:31;3.30;;;2.70;;
16731;SDS011;8484;50.904;9.192;2023-08-21T03:50:58;4.67;;;3.20;;
16731;SDS011;8484;50.904;9.192;2023-08-21T03:53:25;3.73;;;3.27;;
16731;SDS011;8484;50.904;9.192;2023-08-21T03:55:53;3.27;;;2.83;;
16731;SDS011;8484;50.904;9.192;2023-08-21T03:58:21;3.50;;;3.20;;
16731;SDS011;8484;50.904;9.192;2023-08-21T04:00:51;3.87;;;2.80;;
16731;SDS011;8484;50.904;9.192;2023-08-21T04:03:18;3.93;;;3.07;;
16731;SDS011;8484;50.904;9.192;2023-08-21T04:05:45;3.10;;;2.80;;
16731;SDS011;8484;50.904;9.192;2023-08-21T04:08:12;3.47;;;3.13;;
16731;SDS011;8484;50.904;9.192;2023-08-21T04:10:39;5.07;;;3.20;;
16731;SDS011;8484;50.904;9.192;2023-08-21T04:13:07;4.87;;;3.50;;
16731;SDS011;8484;50.904;9.192;2023-08-21T04:15:35;81.33;;;9.60;;
16731;SDS011;8484;50.904;9.192;2023-08-21T04:18:05;4.43;;;3.10;;
16731;SDS011;8484;50.904;9.192;2023-08-21T04:20:32;3.77;;;3.30;;
16731;SDS011;8484;50.904;9.192;2023-08-21T04:22:59;3.63;;;3.30;;
16731;SDS011;8484;50.904;9.192;2023-08-21T04:25:26;9.27;;;3.60;;
16731;SDS011;8484;50.904;9.192;2023-08-21T04:27:53;4.73;;;3.37;;
16731;SDS011;8484;50.904;9.192;2023-08-21T04:30:20;4.77;;;3.07;;
16731;SDS011;8484;50.904;9.192;2023-08-21T04:32:48;4.63;;;3.17;;
16731;SDS011;8484;50.904;9.192;2023-08-21T04:35:15;4.23;;;3.20;;
16731;SDS011;8484;50.904;9.192;2023-08-21T04:37:43;5.47;;;3.23;;
16731;SDS011;8484;50.904;9.192;2023-08-21T04:40:12;3.87;;;3.47;;
16731;SDS011;8484;50.904;9.192;2023-08-21T04:42:39;3.40;;;3.10;;
16731;SDS011;8484;50.904;9.192;2023-08-21T04:45:06;3.37;;;3.07;;
16731;SDS011;8484;50.904;9.192;2023-08-21T04:47:34;4.63;;;3.67;;
16731;SDS011;8484;50.904;9.192;2023-08-21T04:50:02;3.97;;;2.73;;
16731;SDS011;8484;50.904;9.192;2023-08-21T04:52:30;5.90;;;3.27;;
16731;SDS011;8484;50.904;9.192;2023-08-21T04:54:57;3.20;;;2.87;;
16731;SDS011;8484;50.904;9.192;2023-08-21T04:57:24;4.53;;;3.30;;
16731;SDS011;8484;50.904;9.192;2023-08-21T04:59:50;3.17;;;2.97;;
16731;SDS011;8484;50.904;9.192;2023-08-21T05:02:17;4.67;;;3.10;;
16731;SDS011;8484;50.904;9.192;2023-08-21T05:04:44;3.40;;;3.10;;
16731;SDS011;8484;50.904;9.192;2023-08-21T05:07:12;3.50;;;3.20;;
16731;SDS011;8484;50.904;9.192;2023-08-21T05:09:39;3.50;;;3.17;;
16731;SDS011;8484;50.904;9.192;2023-08-21T05:12:07;3.70;;;3.40;;
16731;SDS011;8484;50.904;9.192;2023-08-21T05:14:34;3.53;;;3.23;;
16731;SDS011;8484;50.904;9.192;2023-08-21T05:17:01;3.80;;;2.90;;
16731;SDS011;8484;50.904;9.192;2023-08-21T05:19:29;3.33;;;3.00;;
16731;SDS011;8484;50.904;9.192;2023-08-21T05:21:56;3.60;;;3.00;;
16731;SDS011;8484;50.904;9.192;2023-08-21T05:24:24;3.27;;;2.97;;
16731;SDS011;8484;50.904;9.192;2023-08-21T05:26:51;2.90;;;2.70;;
16731;SDS011;8484;50.904;9.192;2023-08-21T05:29:17;5.10;;;3.07;;
16731;SDS011;8484;50.904;9.192;2023-08-21T05:31:44;3.17;;;2.83;;
16731;SDS011;8484;50.904;9.192;2023-08-21T05:34:11;4.17;;;3.10;;
16731;SDS011;8484;50.904;9.192;2023-08-21T05:36:38;3.70;;;3.07;;
16731;SDS011;8484;50.904;9.192;2023-08-21T05:39:05;3.90;;;3.30;;
16731;SDS011;8484;50.904;9.192;2023-08-21T05:41:35;4.20;;;3.10;;
16731;SDS011;8484;50.904;9.192;2023-08-21T05:44:03;3.40;;;3.07;;
16731;SDS011;8484;50.904;9.192;2023-08-21T05:46:31;3.60;;;3.23;;
16731;SDS011;8484;50.904;9.192;2023-08-21T05:48:58;4.23;;;3.07;;
16731;SDS011;8484;50.904;9.192;2023-08-21T05:51:42;4.07;;;3.23;;
16731;SDS011;8484;50.904;9.192;2023-08-21T05:54:09;4.93;;;2.80;;
16731;SDS011;8484;50.904;9.192;2023-08-21T05:56:35;3.07;;;2.73;;
16731;SDS011;8484;50.904;9.192;2023-08-21T05:59:02;2.60;;;2.40;;
16731;SDS011;8484;50.904;9.192;2023-08-21T06:01:29;4.67;;;2.60;;
16731;SDS011;8484;50.904;9.192;2023-08-21T06:03:57;3.07;;;2.20;;
16731;SDS011;8484;50.904;9.192;2023-08-21T06:06:24;3.33;;;2.57;;
16731;SDS011;8484;50.904;9.192;2023-08-21T06:08:52;3.83;;;2.70;;
16731;SDS011;8484;50.904;9.192;2023-08-21T06:11:19;4.07;;;2.60;;
16731;SDS011;8484;50.904;9.192;2023-08-21T06:13:47;2.97;;;2.37;;
16731;SDS011;8484;50.904;9.192;2023-08-21T06:16:14;4.03;;;2.57;;
16731;SDS011;8484;50.904;9.192;2023-08-21T06:18:41;2.90;;;2.20;;
16731;SDS011;8484;50.904;9.192;2023-08-21T06:21:08;2.77;;;2.13;;
16731;SDS011;8484;50.904;9.192;2023-08-21T06:23:35;5.27;;;2.33;;
16731;SDS011;8484;50.904;9.192;2023-08-21T06:26:03;3.30;;;2.10;;
16731;SDS011;8484;50.904;9.192;2023-08-21T06:28:30;4.37;;;2.10;;
16731;SDS011;8484;50.904;9.192;2023-08-21T06:30:56;3.80;;;2.47;;
16731;SDS011;8484;50.904;9.192;2023-08-21T06:33:24;3.70;;;2.30;;
16731;SDS011;8484;50.904;9.192;2023-08-21T06:35:50;3.70;;;2.40;;
16731;SDS011;8484;50.904;9.192;2023-08-21T06:38:17;5.13;;;2.07;;
16731;SDS011;8484;50.904;9.192;2023-08-21T06:40:44;2.80;;;2.10;;
16731;SDS011;8484;50.904;9.192;2023-08-21T06:43:13;2.03;;;1.83;;
16731;SDS011;8484;50.904;9.192;2023-08-21T06:45:40;2.33;;;1.70;;
16731;SDS011;8484;50.904;9.192;2023-08-21T06:48:07;2.03;;;1.90;;
16731;SDS011;8484;50.904;9.192;2023-08-21T06:50:36;3.00;;;1.90;;
16731;SDS011;8484;50.904;9.192;2023-08-21T06:53:03;3.17;;;1.93;;
16731;SDS011;8484;50.904;9.192;2023-08-21T06:55:30;2.70;;;2.10;;
16731;SDS011;8484;50.904;9.192;2023-08-21T06:57:57;2.47;;;1.90;;
16731;SDS011;8484;50.904;9.192;2023-08-21T07:00:25;3.27;;;2.00;;
16731;SDS011;8484;50.904;9.192;2023-08-21T07:02:52;4.97;;;1.70;;
16731;SDS011;8484;50.904;9.192;2023-08-21T07:05:20;3.23;;;2.10;;
16731;SDS011;8484;50.904;9.192;2023-08-21T07:07:47;3.47;;;1.83;;
16731;SDS011;8484;50.904;9.192;2023-08-21T07:10:13;1.83;;;1.60;;
16731;SDS011;8484;50.904;9.192;2023-08-21T07:12:40;3.57;;;1.60;;
16731;SDS011;8484;50.904;9.192;2023-08-21T07:15:08;8.63;;;2.00;;
16731;SDS011;8484;50.904;9.192;2023-08-21T07:17:36;5.03;;;1.70;;
16731;SDS011;8484;50.904;9.192;2023-08-21T07:20:04;2.10;;;1.70;;
16731;SDS011;8484;50.904;9.192;2023-08-21T07:22:32;2.27;;;1.60;;
16731;SDS011;8484;50.904;9.192;2023-08-21T07:24:59;3.67;;;1.80;;
16731;SDS011;8484;50.904;9.192;2023-08-21T07:27:29;2.00;;;1.30;;
16731;SDS011;8484;50.904;9.192;2023-08-21T07:29:56;4.40;;;1.90;;
16731;SDS011;8484;50.904;9.192;2023-08-21T07:32:23;2.10;;;1.77;;
16731;SDS011;8484;50.904;9.192;2023-08-21T07:34:52;1.77;;;1.50;;
16731;SDS011;8484;50.904;9.192;2023-08-21T07:37:20;2.33;;;1.90;;
16731;SDS011;8484;50.904;9.192;2023-08-21T07:39:47;2.47;;;1.87;;
16731;SDS011;8484;50.904;9.192;2023-08-21T07:42:13;2.57;;;1.60;;
16731;SDS011;8484;50.904;9.192;2023-08-21T07:44:40;2.70;;;1.50;;
16731;SDS011;8484;50.904;9.192;2023-08-21T07:47:07;2.40;;;1.40;;
16731;SDS011;8484;50.904;9.192;2023-08-21T07:49:34;1.83;;;1.43;;
16731;SDS011;8484;50.904;9.192;2023-08-21T07:52:04;3.37;;;1.77;;
16731;SDS011;8484;50.904;9.192;2023-08-21T07:54:31;1.73;;;1.60;;
16731;SDS011;8484;50.904;9.192;2023-08-21T07:56:58;1.57;;;1.47;;
16731;SDS011;8484;50.904;9.192;2023-08-21T07:59:25;2.90;;;1.57;;
16731;SDS011;8484;50.904;9.192;2023-08-21T08:01:52;1.83;;;1.40;;
16731;SDS011;8484;50.904;9.192;2023-08-21T08:04:18;7.47;;;1.70;;
16731;SDS011;8484;50.904;9.192;2023-08-21T08:06:46;3.23;;;1.60;;
16731;SDS011;8484;50.904;9.192;2023-08-21T08:09:14;2.30;;;1.93;;
16731;SDS011;8484;50.904;9.192;2023-08-21T08:11:41;2.10;;;1.40;;
16731;SDS011;8484;50.904;9.192;2023-08-21T08:14:08;1.73;;;1.43;;
16731;SDS011;8484;50.904;9.192;2023-08-21T08:16:35;3.67;;;1.70;;
16731;SDS011;8484;50.904;9.192;2023-08-21T08:19:02;2.40;;;1.80;;
16731;SDS011;8484;50.904;9.192;2023-08-21T08:21:29;3.03;;;1.80;;
16731;SDS011;8484;50.904;9.192;2023-08-21T08:23:56;2.47;;;1.90;;
16731;SDS011;8484;50.904;9.192;2023-08-21T08:26:24;3.20;;;1.60;;
16731;SDS011;8484;50.904;9.192;2023-08-21T08:28:51;2.63;;;1.40;;
16731;SDS011;8484;50.904;9.192;2023-08-21T08:31:18;2.23;;;1.50;;
16731;SDS011;8484;50.904;9.192;2023-08-21T08:33:46;2.03;;;1.50;;
16731;SDS011;8484;50.904;9.192;2023-08-21T08:36:13;3.10;;;1.87;;
16731;SDS011;8484;50.904;9.192;2023-08-21T08:38:40;3.33;;;1.63;;
16731;SDS011;8484;50.904;9.192;2023-08-21T08:41:10;2.53;;;1.60;;
16731;SDS011;8484;50.904;9.192;2023-08-21T08:43:47;2.00;;;1.50;;
16731;SDS011;8484;50.904;9.192;2023-08-21T08:46:15;2.43;;;1.40;;
16731;SDS011;8484;50.904;9.192;2023-08-21T08:48:43;3.30;;;1.70;;
16731;SDS011;8484;50.904;9.192;2023-08-21T08:51:09;1.80;;;1.40;;
16731;SDS011;8484;50.904;9.192;2023-08-21T08:53:37;4.33;;;1.67;;
16731;SDS011;8484;50.904;9.192;2023-08-21T08:56:05;2.47;;;1.50;;
16731;SDS011;8484;50.904;9.192;2023-08-21T08:58:32;2.90;;;1.90;;
16731;SDS011;8484;50.904;9.192;2023-08-21T09:01:00;2.43;;;1.60;;
16731;SDS011;8484;50.904;9.192;2023-08-21T09:03:27;2.27;;;1.43;;
16731;SDS011;8484;50.904;9.192;2023-08-21T09:05:55;6.60;;;1.90;;
16731;SDS011;8484;50.904;9.192;2023-08-21T09:08:25;2.40;;;1.67;;
16731;SDS011;8484;50.904;9.192;2023-08-21T09:10:52;2.17;;;1.60;;
16731;SDS011;8484;50.904;9.192;2023-08-21T09:13:22;2.73;;;1.70;;
16731;SDS011;8484;50.904;9.192;2023-08-21T09:15:53;2.00;;;1.60;;
16731;SDS011;8484;50.904;9.192;2023-08-21T09:18:22;3.13;;;1.40;;
16731;SDS011;8484;50.904;9.192;2023-08-21T09:20:48;3.37;;;1.60;;
16731;SDS011;8484;50.904;9.192;2023-08-21T09:23:16;2.93;;;1.60;;
16731;SDS011;8484;50.904;9.192;2023-08-21T09:25:45;2.17;;;1.70;;
16731;SDS011;8484;50.904;9.192;2023-08-21T09:28:13;2.77;;;1.50;;
16731;SDS011;8484;50.904;9.192;2023-08-21T09:30:44;3.33;;;1.63;;
16731;SDS011;8484;50.904;9.192;2023-08-21T09:33:12;2.10;;;1.80;;
16731;SDS011;8484;50.904;9.192;2023-08-21T09:35:40;3.30;;;1.60;;
16731;SDS011;8484;50.904;9.192;2023-08-21T09:38:10;1.60;;;1.50;;
16731;SDS011;8484;50.904;9.192;2023-08-21T09:40:39;7.05;;;1.73;;
16731;SDS011;8484;50.904;9.192;2023-08-21T09:43:08;1.95;;;1.40;;
16731;SDS011;8484;50.904;9.192;2023-08-21T09:45:36;1.60;;;1.40;;
16731;SDS011;8484;50.904;9.192;2023-08-21T09:48:03;2.55;;;1.63;;
16731;SDS011;8484;50.904;9.192;2023-08-21T09:50:30;1.80;;;1.38;;
16731;SDS011;8484;50.904;9.192;2023-08-21T09:52:59;3.28;;;1.45;;
16731;SDS011;8484;50.904;9.192;2023-08-21T09:55:27;1.73;;;1.50;;
16731;SDS011;8484;50.904;9.192;2023-08-21T09:57:56;1.98;;;1.35;;
16731;SDS011;8484;50.904;9.192;2023-08-21T10:00:29;2.50;;;1.35;;
16731;SDS011;8484;50.904;9.192;2023-08-21T10:02:59;1.33;;;1.23;;
16731;SDS011;8484;50.904;9.192;2023-08-21T10:05:28;1.65;;;1.30;;
16731;SDS011;8484;50.904;9.192;2023-08-21T10:07:56;2.17;;;1.40;;
16731;SDS011;8484;50.904;9.192;2023-08-21T10:10:29;5.00;;;1.50;;
16731;SDS011;8484;50.904;9.192;2023-08-21T10:12:57;3.80;;;1.70;;
16731;SDS011;8484;50.904;9.192;2023-08-21T10:15:24;1.80;;;1.13;;
16731;SDS011;8484;50.904;9.192;2023-08-21T10:17:52;1.98;;;1.25;;
16731;SDS011;8484;50.904;9.192;2023-08-21T10:20:20;1.20;;;1.00;;
16731;SDS011;8484;50.904;9.192;2023-08-21T10:22:48;1.67;;;1.23;;
16731;SDS011;8484;50.904;9.192;2023-08-21T10:25:18;2.38;;;1.08;;
16731;SDS011;8484;50.904;9.192;2023-08-21T10:27:49;1.60;;;1.10;;
16731;SDS011;8484;50.904;9.192;2023-08-21T10:30:19;2.13;;;1.08;;
16731;SDS011;8484;50.904;9.192;2023-08-21T10:32:50;1.20;;;1.10;;
16731;SDS011;8484;50.904;9.192;2023-08-21T10:35:20;3.42;;;1.20;;
16731;SDS011;8484;50.904;9.192;2023-08-21T10:38:10;0.10;;;0.10;;
16731;SDS011;8484;50.904;9.192;2023-08-21T10:40:39;2.30;;;1.30;;
16731;SDS011;8484;50.904;9.192;2023-08-21T10:46:05;3.85;;;1.00;;
16731;SDS011;8484;50.904;9.192;2023-08-21T10:48:32;1.45;;;0.80;;
16731;SDS011;8484;50.904;9.192;2023-08-21T10:51:00;0.68;;;0.65;;
16731;SDS011;8484;50.904;9.192;2023-08-21T10:53:29;2.92;;;0.70;;
16731;SDS011;8484;50.904;9.192;2023-08-21T10:56:00;2.70;;;0.90;;
16731;SDS011;8484;50.904;9.192;2023-08-21T10:58:28;1.23;;;0.85;;
16731;SDS011;8484;50.904;9.192;2023-08-21T11:00:58;1.23;;;0.90;;
16731;SDS011;8484;50.904;9.192;2023-08-21T11:03:25;3.58;;;0.90;;
16731;SDS011;8484;50.904;9.192;2023-08-21T11:06:02;1.52;;;0.70;;
16731;SDS011;8484;50.904;9.192;2023-08-21T11:08:29;1.52;;;0.80;;
16731;SDS011;8484;50.904;9.192;2023-08-21T11:10:59;0.90;;;0.70;;
16731;SDS011;8484;50.904;9.192;2023-08-21T11:13:26;0.90;;;0.70;;
16731;SDS011;8484;50.904;9.192;2023-08-21T11:15:59;0.90;;;0.80;;
16731;SDS011;8484;50.904;9.192;2023-08-21T11:18:30;0.98;;;0.82;;
16731;SDS011;8484;50.904;9.192;2023-08-21T11:21:04;0.88;;;0.70;;
16731;SDS011;8484;50.904;9.192;2023-08-21T11:23:33;0.88;;;0.77;;
16731;SDS011;8484;50.904;9.192;2023-08-21T11:26:02;1.40;;;0.70;;
16731;SDS011;8484;50.904;9.192;2023-08-21T11:28:30;2.60;;;1.00;;
16731;SDS011;8484;50.904;9.192;2023-08-21T11:30:57;0.70;;;0.70;;
16731;SDS011;8484;50.904;9.192;2023-08-21T11:33:25;0.75;;;0.70;;
16731;SDS011;8484;50.904;9.192;2023-08-21T11:35:53;1.27;;;0.73;;
16731;SDS011;8484;50.904;9.192;2023-08-21T11:38:23;0.88;;;0.65;;
16731;SDS011;8484;50.904;9.192;2023-08-21T11:40:51;1.10;;;0.80;;
16731;SDS011;8484;50.904;9.192;2023-08-21T11:43:33;2.25;;;0.70;;
16731;SDS011;8484;50.904;9.192;2023-08-21T11:46:02;1.08;;;0.80;;
16731;SDS011;8484;50.904;9.192;2023-08-21T11:48:29;1.42;;;0.80;;
16731;SDS011;8484;50.904;9.192;2023-08-21T11:50:56;0.93;;;0.68;;
16731;SDS011;8484;50.904;9.192;2023-08-21T11:53:30;0.90;;;0.73;;
16731;SDS011;8484;50.904;9.192;2023-08-21T11:55:58;0.90;;;0.70;;
16731;SDS011;8484;50.904;9.192;2023-08-21T11:58:27;1.67;;;0.70;;
16731;SDS011;8484;50.904;9.192;2023-08-21T12:00:54;0.90;;;0.80;;
16731;SDS011;8484;50.904;9.192;2023-08-21T12:03:29;0.80;;;0.60;;
16731;SDS011;8484;50.904;9.192;2023-08-21T12:05:56;1.05;;;0.70;;
16731;SDS011;8484;50.904;9.192;2023-08-21T12:08:23;1.08;;;0.70;;
16731;SDS011;8484;50.904;9.192;2023-08-21T12:10:50;1.10;;;0.77;;
16731;SDS011;8484;50.904;9.192;2023-08-21T12:13:23;0.82;;;0.60;;
16731;SDS011;8484;50.904;9.192;2023-08-21T12:15:52;0.73;;;0.60;;
16731;SDS011;8484;50.904;9.192;2023-08-21T12:18:19;0.75;;;0.65;;
16731;SDS011;8484;50.904;9.192;2023-08-21T12:20:46;0.50;;;0.50;;
16731;SDS011;8484;50.904;9.192;2023-08-21T12:23:13;1.00;;;0.70;;
16731;SDS011;8484;50.904;9.192;2023-08-21T12:25:40;1.33;;;0.60;;
16731;SDS011;8484;50.904;9.192;2023-08-21T12:28:07;1.67;;;0.63;;
16731;SDS011;8484;50.904;9.192;2023-08-21T12:30:34;0.88;;;0.60;;
16731;SDS011;8484;50.904;9.192;2023-08-21T12:33:03;0.97;;;0.60;;
16731;SDS011;8484;50.904;9.192;2023-08-21T12:35:30;0.85;;;0.80;;
16731;SDS011;8484;50.904;9.192;2023-08-21T12:37:58;1.85;;;0.60;;
16731;SDS011;8484;50.904;9.192;2023-08-21T12:40:30;0.50;;;0.50;;
16731;SDS011;8484;50.904;9.192;2023-08-21T12:42:57;1.13;;;0.80;;
16731;SDS011;8484;50.904;9.192;2023-08-21T12:45:24;1.00;;;0.73;;
16731;SDS011;8484;50.904;9.192;2023-08-21T12:47:52;0.90;;;0.60;;
16731;SDS011;8484;50.904;9.192;2023-08-21T12:50:20;1.00;;;0.70;;
16731;SDS011;8484;50.904;9.192;2023-08-21T12:52:47;1.20;;;0.80;;
16731;SDS011;8484;50.904;9.192;2023-08-21T12:55:16;1.07;;;0.73;;
16731;SDS011;8484;50.904;9.192;2023-08-21T12:57:43;1.03;;;0.80;;
16731;SDS011;8484;50.904;9.192;2023-08-21T13:00:11;0.93;;;0.70;;
16731;SDS011;8484;50.904;9.192;2023-08-21T13:02:41;1.30;;;0.70;;
16731;SDS011;8484;50.904;9.192;2023-08-21T13:05:24;1.60;;;0.67;;
16731;SDS011;8484;50.904;9.192;2023-08-21T13:07:51;0.70;;;0.67;;
16731;SDS011;8484;50.904;9.192;2023-08-21T13:10:18;2.17;;;0.70;;
16731;SDS011;8484;50.904;9.192;2023-08-21T13:12:45;1.57;;;0.90;;
16731;SDS011;8484;50.904;9.192;2023-08-21T13:15:12;1.57;;;1.00;;
16731;SDS011;8484;50.904;9.192;2023-08-21T13:17:39;1.40;;;0.97;;
16731;SDS011;8484;50.904;9.192;2023-08-21T13:20:07;1.80;;;0.90;;
16731;SDS011;8484;50.904;9.192;2023-08-21T13:22:47;1.80;;;0.80;;
16731;SDS011;8484;50.904;9.192;2023-08-21T13:25:17;2.90;;;0.97;;
16731;SDS011;8484;50.904;9.192;2023-08-21T13:27:45;5.30;;;1.07;;
16731;SDS011;8484;50.904;9.192;2023-08-21T13:30:12;2.30;;;0.90;;
16731;SDS011;8484;50.904;9.192;2023-08-21T13:32:40;1.03;;;0.80;;
16731;SDS011;8484;50.904;9.192;2023-08-21T13:35:07;1.53;;;0.93;;
16731;SDS011;8484;50.904;9.192;2023-08-21T13:37:34;1.20;;;1.00;;
16731;SDS011;8484;50.904;9.192;2023-08-21T13:40:03;1.07;;;0.80;;
16731;SDS011;8484;50.904;9.192;2023-08-21T13:42:36;0.80;;;0.77;;
16731;SDS011;8484;50.904;9.192;2023-08-21T13:45:06;1.93;;;1.00;;
16731;SDS011;8484;50.904;9.192;2023-08-21T13:47:35;1.53;;;0.90;;
16731;SDS011;8484;50.904;9.192;2023-08-21T13:50:02;1.80;;;1.00;;
16731;SDS011;8484;50.904;9.192;2023-08-21T13:52:30;1.20;;;0.80;;
16731;SDS011;8484;50.904;9.192;2023-08-21T13:54:58;1.77;;;0.80;;
16731;SDS011;8484;50.904;9.192;2023-08-21T13:57:26;2.67;;;0.63;;
16731;SDS011;8484;50.904;9.192;2023-08-21T13:59:53;1.13;;;0.80;;
16731;SDS011;8484;50.904;9.192;2023-08-21T14:02:20;2.57;;;0.70;;
16731;SDS011;8484;50.904;9.192;2023-08-21T14:04:48;1.33;;;0.80;;
16731;SDS011;8484;50.904;9.192;2023-08-21T14:07:15;0.80;;;0.80;;
16731;SDS011;8484;50.904;9.192;2023-08-21T14:09:42;1.77;;;0.87;;
16731;SDS011;8484;50.904;9.192;2023-08-21T14:12:09;2.03;;;1.00;;
16731;SDS011;8484;50.904;9.192;2023-08-21T14:14:38;1.37;;;0.80;;
16731;SDS011;8484;50.904;9.192;2023-08-21T14:17:04;2.70;;;1.00;;
16731;SDS011;8484;50.904;9.192;2023-08-21T14:19:31;1.47;;;0.80;;
16731;SDS011;8484;50.904;9.192;2023-08-21T14:21:58;4.13;;;0.90;;
16731;SDS011;8484;50.904;9.192;2023-08-21T14:24:26;3.93;;;0.90;;
16731;SDS011;8484;50.904;9.192;2023-08-21T14:26:53;3.37;;;0.70;;
16731;SDS011;8484;50.904;9.192;2023-08-21T14:29:20;4.83;;;1.00;;
16731;SDS011;8484;50.904;9.192;2023-08-21T14:31:48;2.40;;;1.00;;
16731;SDS011;8484;50.904;9.192;2023-08-21T14:34:20;1.37;;;0.90;;
16731;SDS011;8484;50.904;9.192;2023-08-21T14:36:47;0.97;;;0.80;;
16731;SDS011;8484;50.904;9.192;2023-08-21T14:39:14;2.10;;;1.00;;
16731;SDS011;8484;50.904;9.192;2023-08-21T14:41:41;0.97;;;0.87;;
16731;SDS011;8484;50.904;9.192;2023-08-21T14:44:08;1.00;;;0.90;;
16731;SDS011;8484;50.904;9.192;2023-08-21T14:46:35;1.13;;;0.80;;
16731;SDS011;8484;50.904;9.192;2023-08-21T14:49:04;1.20;;;1.00;;
16731;SDS011;8484;50.904;9.192;2023-08-21T14:51:31;1.27;;;0.60;;
16731;SDS011;8484;50.904;9.192;2023-08-21T14:53:57;1.27;;;0.83;;
16731;SDS011;8484;50.904;9.192;2023-08-21T15:00:06;0.87;;;0.80;;
16731;SDS011;8484;50.904;9.192;2023-08-21T15:02:35;3.57;;;1.17;;
16731;SDS011;8484;50.904;9.192;2023-08-21T15:05:04;1.13;;;1.03;;
16731;SDS011;8484;50.904;9.192;2023-08-21T15:07:32;1.60;;;1.07;;
16731;SDS011;8484;50.904;9.192;2023-08-21T15:09:59;1.27;;;1.00;;
16731;SDS011;8484;50.904;9.192;2023-08-21T15:12:26;0.90;;;0.90;;